Portage, Minnesota
Current Conditions -  °F | °C
As of 2:32 AM on Saturday 29 Nov 2014 (Local Time) from KORB Reporting Station
Overcast Overcast  
Wind Chill: 18°   Ceiling: 1500
Heat Index: 18°   Visibility: 10mi
Dew Point: 12°   Wind: 0mph
Humidity: 79%   Direction: NA
Pressure: 29.55"   Gusts: NA
Location:  48.1455°N, 92.8504°W
Report Text: KORB 290832Z AUTO 00000KT 10SM OVC015 M08/M11 A2955 RMK AO2
Loading
Personal Weather Stations






























Interactive Weather Map New forecast layout! Learn more

10-Day Weather Forecast

Advertisements
Track Severe Weather on mobile